createdAt,value
2022-12-08T00:07:38.786Z,98.7
2022-12-08T00:27:38.641Z,98.5
2022-12-08T00:47:38.702Z,98.4
2022-12-08T01:07:38.631Z,98.6
2022-12-08T01:27:38.628Z,98.8
2022-12-08T01:47:38.609Z,98.0
2022-12-08T02:07:38.603Z,97.2
2022-12-08T02:27:38.588Z,97.4
2022-12-08T02:47:38.638Z,97.8
2022-12-08T03:07:38.573Z,97.5
2022-12-08T03:27:38.575Z,97.9
2022-12-08T03:47:38.577Z,98.8
2022-12-08T04:07:38.559Z,98.6
2022-12-08T04:27:38.546Z,98.9
2022-12-08T04:47:38.528Z,98.7
2022-12-08T05:07:38.629Z,99.2
2022-12-08T05:27:38.525Z,99.1
2022-12-08T05:47:38.602Z,99.9
2022-12-08T06:07:38.542Z,99.6
2022-12-08T06:27:38.577Z,99.0
2022-12-08T06:47:38.580Z,98.0
2022-12-08T07:07:38.522Z,99.0
2022-12-08T07:27:38.470Z,99.4
2022-12-08T07:47:38.461Z,99.9
2022-12-08T08:07:38.591Z,99.2
2022-12-08T08:27:38.608Z,99.2
2022-12-08T08:47:38.582Z,99.0
2022-12-08T09:07:38.572Z,99.9
2022-12-08T09:27:38.425Z,99.9
2022-12-08T09:47:38.535Z,100.0
2022-12-08T10:07:38.430Z,100.0
2022-12-08T10:27:38.398Z,100.0
2022-12-08T10:47:38.444Z,100.0
2022-12-08T11:07:38.381Z,99.4
2022-12-08T11:27:38.373Z,99.1
2022-12-08T11:47:38.367Z,98.9
2022-12-08T12:07:38.346Z,98.0
2022-12-08T12:27:38.321Z,97.9
2022-12-08T12:47:38.342Z,97.0
2022-12-08T13:07:38.309Z,97.9
2022-12-08T13:27:38.294Z,97.9
2022-12-08T13:47:38.374Z,97.7
2022-12-08T14:07:38.415Z,95.5
2022-12-08T14:27:38.275Z,96.8
2022-12-08T14:47:38.259Z,97.3
2022-12-08T15:07:38.245Z,97.4
2022-12-08T15:27:38.232Z,98.0
2022-12-08T15:47:38.326Z,97.7
2022-12-08T16:07:38.234Z,96.9
2022-12-08T16:27:38.199Z,96.8
2022-12-08T16:47:38.189Z,96.7
2022-12-08T17:07:38.298Z,96.2
2022-12-08T17:27:38.233Z,96.6
2022-12-08T17:47:38.182Z,96.1
2022-12-08T18:07:38.151Z,97.1
2022-12-08T18:27:38.133Z,97.1
2022-12-08T18:47:38.133Z,97.3
2022-12-08T19:07:38.173Z,94.7
2022-12-08T19:27:38.096Z,97.4
2022-12-08T19:47:38.102Z,98.1
2022-12-08T20:07:38.193Z,96.5
2022-12-08T20:27:38.084Z,97.6
2022-12-08T20:47:38.072Z,98.6
2022-12-08T21:07:38.078Z,96.8
2022-12-08T21:27:38.093Z,97.3
2022-12-08T21:47:38.045Z,97.3
2022-12-08T22:07:38.083Z,98.2
2022-12-08T22:27:38.061Z,98.9
2022-12-08T22:47:38.064Z,96.6
2022-12-08T23:07:38.145Z,97.1
2022-12-08T23:27:38.025Z,97.8
2022-12-08T23:47:38.053Z,99.2
